METAR Data
IDs: Format: Raw Decoded Include TAF

Data at: 1742 UTC 21 Sep 2018

KSSF 211653Z 16007KT 10SM FEW021 FEW026 BKN037 30/23 A2994 RMK AO2 SLP128 T03000228
KSSF 211642Z 16010KT 10SM FEW021 SCT027 BKN037 30/23 A2995 RMK AO2 T03000228
KSSF 211630Z 17009KT 10SM BKN021 BKN027 BKN042 30/23 A2995 RMK AO2 T03000233
KSSF 211553Z 17007KT 10SM FEW019 SCT026 BKN037 29/23 A2995 RMK AO2 SLP129 T02940233
KSSF 211453Z 16008KT 10SM SCT014 BKN020 BKN029 28/24 A2993 RMK AO2 SLP123 T02830239 50012
KSSF 211353Z 18007KT 10SM BKN016 BKN022 BKN031 28/23 A2993 RMK AO2 SLP125 T02780233
KSSF 211344Z 17008KT 10SM SCT013 BKN022 BKN032 28/24 A2993 RMK AO2 T02780239
KSSF 211253Z 16008KT 10SM BKN014 BKN019 OVC025 27/23 A2991 RMK AO2 SLP118 T02720233
KSSF 211153Z 15005KT 10SM BKN015 27/23 A2990 RMK AO2 SLP111 70014 T02670233 10272 20267 55000
KSSF 211131Z AUTO 15005KT 10SM BKN015 27/23 A2989 RMK AO2 T02670233
KSSF 211110Z AUTO 15004KT 10SM BKN014 BKN019 27/23 A2989 RMK AO2 T02670233
KSSF 211053Z AUTO 15007KT 10SM SCT013 SCT020 27/24 A2989 RMK AO2 SLP109 T02720239
KSSF 211040Z AUTO 15006KT 10SM SCT016 27/24 A2989 RMK AO2 T02720239
KSSF 210953Z AUTO 15007KT 10SM SCT014 BKN022 27/24 A2989 RMK AO2 SLP108 T02720239
KSSF 210917Z AUTO 16005KT 10SM BKN015 OVC021 27/23 A2990 RMK AO2 T02720233
KSSF 210902Z AUTO 16007KT 10SM BKN014 OVC019 27/23 A2990 RMK AO2 T02720233
KSSF 210853Z AUTO 15006KT 10SM BKN015 OVC021 27/24 A2990 RMK AO2 SLP110 T02720239 58005
KSSF 210832Z AUTO 15005KT 10SM BKN015 OVC020 27/24 A2990 RMK AO2 T02720239
KSSF 210806Z AUTO 15006KT 10SM BKN014 OVC022 27/24 A2990 RMK AO2 T02720239
KSSF 210753Z AUTO 14007KT 10SM BKN016 OVC023 27/24 A2990 RMK AO2 SLP112 T02720239
KSSF 210736Z AUTO 14008KT 10SM BKN015 OVC021 27/24 A2990 RMK AO2 T02720239
KSSF 210653Z AUTO 15007KT 10SM OVC013 27/24 A2991 RMK AO2 SLP115 T02720239
KSSF 210553Z AUTO 14008KT 10SM OVC012 27/24 A2991 RMK AO2 SLP116 60005 T02720244 10283 20261 403280250 50000
KSSF 210453Z AUTO 12007KT 10SM BKN012 27/24 A2992 RMK AO2 SLP119 T02720239
KSSF 210419Z AUTO 13009KT 10SM BKN012 27/24 A2992 RMK AO2 T02670239
KSSF 210353Z AUTO 13006KT 10SM CLR 27/24 A2992 RMK AO2 SLP119 T02670239
KSSF 210253Z 12004KT 10SM SCT100 27/24 A2991 RMK AO2 LTG DSNT NE SLP117 60005 T02670239 53017
KSSF 210153Z 14008KT 10SM FEW013 SCT022 27/24 A2989 RMK AO2 LTG DSNT NE SLP110 T02670239
KSSF 210053Z 13006KT 10SM BKN038 BKN048 OVC060 26/23 A2987 RMK AO2 RAB29E47 SLP104 P0005 T02610228
KSSF 202353Z 13011KT 10SM FEW043 BKN080 28/23 A2986 RMK AO2 SLP100 60000 T02830228 10328 20283 53004
KSSF 202253Z 11015KT 10SM FEW044 SCT075 BKN090 29/22 A2985 RMK AO2 SLP097 T02940217
KSSF 202153Z 16011KT 10SM FEW047 33/21 A2985 RMK AO2 SLP096 T03280206
KSSF 202053Z 18006KT 10SM BKN036 32/21 A2985 RMK AO2 LTG DSNT NE SLP095 60000 T03170211 56028
KSSF 201953Z VRB04KT 10SM SCT075 SCT090 BKN110 32/23 A2987 RMK AO2 RAB12E43 SLP102 P0000 T03170228
KSSF 201853Z 15009KT 10SM SCT035 SCT110 32/22 A2990 RMK AO2 SLP112 T03220217
KSSF 201753Z 17009KT 10SM FEW023 SCT120 31/23 A2993 RMK AO2 LTG DSNT E RAB17E27 SLP123 P0000 60009 T03110228 10311 20250 58005
KSSF 201653Z 17010KT 10SM FEW022 SCT110 30/23 A2996 RMK AO2 SLP131 T03000228
KSSF 201623Z 16008KT 10SM FEW014 SCT024 SCT033 29/23 A2996 RMK AO2 T02940233
KSSF 201611Z 16009KT 10SM FEW013 BKN020 BKN028 29/23 A2996 RMK AO2 T02940233
KSSF 201553Z 15006KT 10SM BKN012 BKN020 OVC028 29/24 A2996 RMK AO2 SLP132 T02890239
KSSF 201515Z 16006KT 10SM SCT007 BKN013 28/24 A2995 RMK AO2 LTG DSNT NW T02780244
KSSF 201453Z 15005KT 10SM BKN007 OVC011 27/24 A2994 RMK AO2 CIG 005V009 SLP128 60009 T02720244 53010
KSSF 201407Z 12003KT 10SM BKN007 BKN011 27/24 A2994 RMK AO2 T02670239
KSSF 201353Z 11004KT 10SM FEW008 SCT110 26/24 A2993 RMK AO2 RAE05B26E49 SLP124 P0001 T02610239
KSSF 201342Z 00000KT 10SM -RA SCT008 SCT100 BKN120 26/23 A2993 RMK AO2 LTG DSNT N RAE05B26 P0001 T02610233
KSSF 201334Z 00000KT 10SM -RA BKN008 26/23 A2993 RMK AO2 LTG DSNT N AND SE RAE05B26 P0001 T02610228
KSSF 201326Z 00000KT 10SM -RA BKN010 26/23 A2992 RMK AO2 LTG DSNT N AND SE RAE05B26 P0001 T02560228
KSSF 201318Z 00000KT 10SM FEW010 FEW014 SCT036 26/22 A2992 RMK AO2 LTG DSNT N RAE05 P0001 T02560222
KSSF 201253Z 17003KT 4SM VCTS RA SCT014 BKN040 25/22 A2992 RMK AO2 LTG DSNT N AND NE RAB06E33B52 TSE18 SLP121 P0008 T02500222
KSSF 201219Z 21005KT 4SM VCTS RA SCT014 BKN036 OVC100 26/23 A2992 RMK AO2 LTG DSNT SE RAB06 TSE18 P0006 T02560228
KSSF 201209Z 23003KT 3SM +TSRA BR SCT006 BKN017 OVC045 26/24 A2991 RMK AO2 RAB06 P0004 T02610239
KSSF 201153Z 16004KT 10SM TS BKN006 BKN009 OVC036 26/24 A2992 RMK AO2 RAB39E52 TSB53 SLP118 LTG OVHD P0000 60000 T02610239 10267 20261 53002
KSSF 201150Z 15004KT 10SM VCTS -RA BKN006 OVC012 26/24 A2992 RMK AO2 RAB39 CIG 004V010 P0000
KSSF 201112Z AUTO 13003KT 10SM BKN006 BKN012 26/23 A2991 RMK AO2 LTG DSNT S CIG 004V008 T02610233
KSSF 201053Z AUTO 00000KT 10SM VCTS BKN006 BKN012 26/23 A2990 RMK AO2 LTG DSNT NE SLP113 T02610233
KSSF 200953Z AUTO 14003KT 10SM BKN008 26/23 A2991 RMK AO2 SLP114 T02610233
KSSF 200853Z AUTO 14003KT 10SM BKN008 26/23 A2992 RMK AO2 SLP117 T02610233 58004
KSSF 200848Z AUTO 15004KT 10SM BKN008 26/23 A2992 RMK AO2
KSSF 200839Z AUTO 13003KT 10SM SCT008 26/23 A2992 RMK AO2 T02610233
KSSF 200818Z AUTO 12006KT 10SM SCT010 27/23 A2992 RMK AO2 T02670233
KSSF 200801Z AUTO 12005KT 10SM BKN011 27/23 A2992 RMK AO2 CIG 009V013 T02670233
KSSF 200753Z AUTO 13004KT 10SM SCT010 27/23 A2993 RMK AO2 SLP121 T02670233
KSSF 200653Z AUTO 12003KT 10SM CLR 27/23 A2993 RMK AO2 SLP121 T02670233
KSSF 200553Z AUTO 16004KT 10SM CLR 27/23 A2994 RMK AO2 SLP126 T02670228 10306 20267 403390250 51011